Time;durP1;ratioP1;P1;durP2;ratioP2;P2;SDS_P1;SDS_P2;PMS_P1;PMS_P2;Temp;Humidity;BMP_temperature;BMP_pressure;BME280_temperature;BME280_humidity;BME280_pressure;Samples;Min_cycle;Max_cycle;Signal;HPM_P1;HPM_P2
2021/07/17 00:01:24;;;;;;;15.23;11.68;;;;;;;22.05;70.90;101190.53;5042699;28;20013;-49
2021/07/17 00:03:50;;;;;;;15.50;12.75;;;;;;;22.04;71.39;101180.75;5034877;28;20376;-49
2021/07/17 00:06:15;;;;;;;14.30;11.48;;;;;;;22.07;70.99;101166.28;5039430;28;20372;-50
2021/07/17 00:08:41;;;;;;;15.00;11.95;;;;;;;22.03;71.12;101178.97;5039200;28;20478;-50
2021/07/17 00:11:07;;;;;;;12.98;11.52;;;;;;;22.06;70.93;101181.53;5042032;28;20379;-49
2021/07/17 00:13:32;;;;;;;15.10;11.73;;;;;;;22.03;71.08;101179.88;5040098;28;20035;-50
2021/07/17 00:15:58;;;;;;;13.07;11.80;;;;;;;22.03;71.21;101178.97;5032134;28;20018;-50
2021/07/17 00:18:23;;;;;;;14.57;12.77;;;;;;;22.04;71.12;101183.44;5031414;28;20045;-50
2021/07/17 00:20:49;;;;;;;12.98;11.65;;;;;;;22.03;71.49;101184.34;5036493;28;20531;-50
2021/07/17 00:23:16;;;;;;;15.90;12.15;;;;;;;22.02;71.16;101182.63;5032981;28;20068;-50
2021/07/17 00:25:43;;;;;;;16.05;10.77;;;;;;;22.03;71.34;101176.31;5029318;28;20025;-50
2021/07/17 00:28:08;;;;;;;16.55;12.45;;;;;;;22.01;71.36;101168.31;5037618;28;20029;-50
2021/07/17 00:30:34;;;;;;;15.82;12.05;;;;;;;22.00;71.05;101171.94;5035931;28;20032;-50
2021/07/17 00:32:59;;;;;;;16.05;11.98;;;;;;;22.01;71.26;101164.78;5034168;28;20037;-50
2021/07/17 00:35:24;;;;;;;13.80;11.35;;;;;;;22.02;71.09;101167.41;5031713;28;20045;-49
2021/07/17 00:37:50;;;;;;;20.13;11.93;;;;;;;22.01;71.27;101164.78;5031664;28;20021;-49
2021/07/17 00:40:19;;;;;;;14.68;11.32;;;;;;;22.00;71.40;101165.69;5029786;28;20045;-50
2021/07/17 00:42:45;;;;;;;18.85;12.07;;;;;;;21.99;71.22;101161.28;5032044;28;20021;-50
2021/07/17 00:45:11;;;;;;;17.85;11.70;;;;;;;21.98;71.24;101162.25;5032309;28;20028;-50
2021/07/17 00:47:36;;;;;;;19.42;12.10;;;;;;;22.00;71.38;101157.66;5031011;28;20055;-49
2021/07/17 00:50:08;;;;;;;16.25;11.80;;;;;;;21.97;71.60;101160.50;5035493;28;20446;-49
2021/07/17 00:52:34;;;;;;;16.83;11.85;;;;;;;21.98;71.26;101171.19;5033981;28;20044;-50
2021/07/17 00:54:59;;;;;;;17.25;11.13;;;;;;;21.97;71.33;101172.09;5035670;28;20037;-49
2021/07/17 00:57:25;;;;;;;17.92;11.52;;;;;;;21.96;71.18;101166.81;5034064;28;20508;-49
2021/07/17 00:59:51;;;;;;;18.15;11.13;;;;;;;21.93;71.36;101167.84;5032093;28;20026;-49
2021/07/17 01:02:18;;;;;;;18.60;11.20;;;;;;;21.98;71.20;101172.97;5041107;28;20021;-49
2021/07/17 01:04:43;;;;;;;16.08;11.73;;;;;;;21.95;71.08;101157.03;5034275;28;20021;-49
2021/07/17 01:07:10;;;;;;;13.30;11.10;;;;;;;21.97;71.11;101163.19;5034077;28;20025;-49
2021/07/17 01:09:35;;;;;;;14.45;11.25;;;;;;;21.92;71.29;101164.28;4999871;28;20040;-49
2021/07/17 01:12:02;;;;;;;16.10;12.30;;;;;;;21.94;71.11;101163.34;5040149;28;20030;-49
2021/07/17 01:14:27;;;;;;;16.73;11.57;;;;;;;21.93;71.29;101162.47;5035072;28;20542;-49
2021/07/17 01:16:53;;;;;;;15.25;11.05;;;;;;;21.93;71.28;101170.50;5038026;28;20025;-49
2021/07/17 01:19:22;;;;;;;12.93;11.60;;;;;;;21.94;71.14;101177.63;5040123;28;20025;-49
2021/07/17 01:21:47;;;;;;;15.15;11.30;;;;;;;21.94;71.27;101182.13;5030999;28;20100;-50
2021/07/17 01:24:15;;;;;;;13.55;11.30;;;;;;;21.93;71.19;101183.94;5037127;28;20036;-51
2021/07/17 01:26:41;;;;;;;17.27;11.02;;;;;;;21.95;71.01;101191.94;5034316;28;20459;-50
2021/07/17 01:29:07;;;;;;;15.73;11.70;;;;;;;21.91;71.13;101186.69;5032736;28;20108;-50
2021/07/17 01:31:32;;;;;;;18.20;11.23;;;;;;;21.90;71.04;101179.59;5033609;28;20087;-50
2021/07/17 01:33:57;;;;;;;17.73;11.38;;;;;;;21.91;71.08;101184.00;5034863;28;20013;-51
2021/07/17 01:36:23;;;;;;;18.02;11.90;;;;;;;21.90;71.13;101184.97;5034827;28;20104;-50
2021/07/17 01:38:48;;;;;;;18.55;11.77;;;;;;;21.92;71.12;101177.72;5033910;28;20056;-50
2021/07/17 01:41:14;;;;;;;18.23;11.55;;;;;;;21.88;70.91;101186.84;5036062;28;20100;-50
2021/07/17 01:43:40;;;;;;;20.63;13.25;;;;;;;21.89;71.17;101183.25;5033318;28;20059;-50
2021/07/17 01:46:05;;;;;;;17.23;12.35;;;;;;;21.87;70.91;101179.75;5038253;28;20487;-50
2021/07/17 01:48:30;;;;;;;15.75;10.93;;;;;;;21.88;71.04;101189.53;5035950;28;20037;-50
2021/07/17 01:50:56;;;;;;;18.98;11.75;;;;;;;21.86;71.02;101186.06;5038166;28;20026;-50
2021/07/17 01:53:22;;;;;;;12.13;10.95;;;;;;;21.87;71.16;101184.25;5044207;28;20493;-50
2021/07/17 01:55:48;;;;;;;14.38;11.57;;;;;;;21.85;70.95;101178.97;5038433;28;20022;-50
2021/07/17 01:58:13;;;;;;;14.98;10.75;;;;;;;21.85;70.98;101181.66;5033639;28;20124;-49
2021/07/17 02:00:39;;;;;;;17.70;10.98;;;;;;;21.85;70.89;101173.59;5028453;28;20025;-50
2021/07/17 02:03:05;;;;;;;12.30;10.82;;;;;;;21.85;71.10;101170.91;5033955;28;20021;-50
2021/07/17 02:05:31;;;;;;;15.38;11.35;;;;;;;21.86;70.82;101182.50;5032175;28;20183;-50
2021/07/17 02:07:56;;;;;;;12.30;10.90;;;;;;;21.83;71.11;101167.41;5037289;28;20486;-50
2021/07/17 02:10:24;;;;;;;14.65;12.18;;;;;;;21.86;70.90;101172.66;5036622;28;20025;-51
2021/07/17 02:13:00;;;;;;;15.18;10.52;;;;;;;21.83;70.98;101175.47;5034717;28;20021;-50
2021/07/17 02:15:26;;;;;;;12.50;10.25;;;;;;;21.84;71.02;101173.66;5033081;28;20411;-51
2021/07/17 02:17:52;;;;;;;16.52;11.13;;;;;;;21.84;70.94;101171.84;5032808;28;20024;-49
2021/07/17 02:20:17;;;;;;;15.13;10.70;;;;;;;21.81;70.92;101177.38;5034912;28;20021;-50
2021/07/17 02:22:42;;;;;;;18.88;11.63;;;;;;;21.82;70.96;101184.47;5034352;28;20060;-49
2021/07/17 02:25:08;;;;;;;17.83;10.93;;;;;;;21.82;70.88;101181.78;5036559;28;20104;-49
2021/07/17 02:27:34;;;;;;;16.33;10.73;;;;;;;21.83;70.83;101183.53;5037004;28;20111;-49
2021/07/17 02:29:59;;;;;;;14.32;11.38;;;;;;;21.82;71.02;101179.09;5036122;28;20029;-48
2021/07/17 02:32:24;;;;;;;18.55;12.15;;;;;;;21.81;70.88;101177.38;5038980;28;20437;-49
2021/07/17 02:34:50;;;;;;;17.35;12.07;;;;;;;21.81;71.06;101176.50;5031412;28;20075;-48
2021/07/17 02:37:16;;;;;;;15.02;11.57;;;;;;;21.83;70.75;101179.97;5013979;28;20075;-49
2021/07/17 02:39:41;;;;;;;13.70;11.48;;;;;;;21.81;70.90;101179.19;5035322;28;20017;-48
2021/07/17 02:42:07;;;;;;;14.02;11.43;;;;;;;21.81;70.90;101190.81;5035704;28;20017;-49
2021/07/17 02:44:32;;;;;;;16.45;11.80;;;;;;;21.81;70.86;101189.91;5042183;28;20025;-49
2021/07/17 02:46:57;;;;;;;16.15;11.07;;;;;;;21.80;70.98;101205.16;5036648;28;20044;-49
2021/07/17 02:49:22;;;;;;;14.40;11.05;;;;;;;21.80;70.83;101221.25;5036695;28;20091;-50
2021/07/17 02:51:48;;;;;;;14.25;10.90;;;;;;;21.80;70.87;101223.94;5037871;28;20116;-47
2021/07/17 02:54:13;;;;;;;15.18;11.73;;;;;;;21.79;70.94;101220.41;5028231;28;20080;-49
2021/07/17 02:56:39;;;;;;;16.13;11.43;;;;;;;21.79;70.83;101232.94;5033924;28;20034;-50
2021/07/17 02:59:04;;;;;;;13.05;10.40;;;;;;;21.78;70.89;101223.16;5030510;28;20080;-50
2021/07/17 03:01:29;;;;;;;13.75;11.25;;;;;;;21.77;71.08;101221.41;5040675;28;20379;-48
2021/07/17 03:03:55;;;;;;;17.35;11.85;;;;;;;21.77;70.78;101221.41;5031173;28;20026;-49
2021/07/17 03:06:20;;;;;;;15.98;12.15;;;;;;;21.76;71.08;101215.19;5038345;28;20092;-47
2021/07/17 03:08:45;;;;;;;14.65;11.68;;;;;;;21.77;70.74;101222.28;5041062;28;20022;-49
2021/07/17 03:11:11;;;;;;;13.00;11.57;;;;;;;21.75;70.86;101224.19;5037154;28;20029;-48
2021/07/17 03:13:36;;;;;;;16.42;11.27;;;;;;;21.76;70.84;101227.72;5040538;28;20078;-48
2021/07/17 03:16:01;;;;;;;13.48;11.38;;;;;;;21.75;70.84;101228.66;5023395;28;20030;-49
2021/07/17 03:18:27;;;;;;;15.43;12.02;;;;;;;21.73;70.96;101220.66;5033949;28;20022;-48
2021/07/17 03:20:52;;;;;;;15.27;12.23;;;;;;;21.74;70.86;101224.25;5041437;28;20075;-49
2021/07/17 03:23:17;;;;;;;13.38;11.05;;;;;;;21.73;70.88;101225.13;5040572;28;20033;-48
2021/07/17 03:25:43;;;;;;;14.82;12.10;;;;;;;21.71;70.92;101222.53;5037732;28;20021;-48
2021/07/17 03:28:08;;;;;;;12.75;11.43;;;;;;;21.71;70.74;101225.22;5035729;28;20467;-48
2021/07/17 03:30:34;;;;;;;17.00;12.93;;;;;;;21.72;70.79;101221.59;5030932;28;20036;-48
2021/07/17 03:32:59;;;;;;;16.20;11.73;;;;;;;21.71;70.95;101225.22;5046277;28;20028;-48
2021/07/17 03:35:24;;;;;;;12.23;10.75;;;;;;;21.71;70.73;101232.41;5040176;28;20025;-50
2021/07/17 03:37:50;;;;;;;12.90;11.65;;;;;;;21.70;71.17;101230.69;5035342;28;20030;-48
2021/07/17 03:40:15;;;;;;;13.60;11.55;;;;;;;21.70;70.99;101246.78;5048362;28;20434;-51
2021/07/17 03:42:41;;;;;;;12.45;10.98;;;;;;;21.70;70.83;101233.38;5036107;28;20495;-51
2021/07/17 03:45:06;;;;;;;16.15;12.50;;;;;;;21.67;70.82;101221.81;5041089;28;20371;-52
2021/07/17 03:47:32;;;;;;;12.68;11.40;;;;;;;21.69;70.84;101226.22;5037302;28;20052;-53
2021/07/17 03:49:57;;;;;;;13.38;11.73;;;;;;;21.67;70.86;101212.88;5030999;28;20025;-52
2021/07/17 03:52:22;;;;;;;13.07;11.50;;;;;;;21.67;70.85;101221.81;5032255;28;20734;-53
2021/07/17 03:54:48;;;;;;;13.90;12.50;;;;;;;21.66;70.98;101211.16;5036916;28;20025;-53
2021/07/17 03:57:13;;;;;;;13.13;11.77;;;;;;;21.67;70.94;101216.44;5041023;28;20028;-54
2021/07/17 03:59:38;;;;;;;14.77;12.25;;;;;;;21.65;70.59;101212.94;5037838;28;21264;-54
2021/07/17 04:02:04;;;;;;;14.05;11.30;;;;;;;21.65;70.96;101218.31;5031600;28;20018;-53
2021/07/17 04:04:30;;;;;;;13.90;12.15;;;;;;;21.64;70.85;101208.53;5038137;28;20029;-53
2021/07/17 04:06:55;;;;;;;13.02;11.73;;;;;;;21.64;70.91;101211.22;5035323;28;20034;-54
2021/07/17 04:09:20;;;;;;;14.32;11.20;;;;;;;21.63;71.01;101209.47;5044040;28;20027;-53
2021/07/17 04:11:46;;;;;;;13.68;11.65;;;;;;;21.62;70.91;101217.59;5039761;28;20022;-54
2021/07/17 04:14:11;;;;;;;13.52;12.23;;;;;;;21.63;71.03;101219.34;5038050;28;20104;-53
2021/07/17 04:16:37;;;;;;;15.32;13.68;;;;;;;21.62;71.10;101234.59;5042833;28;20033;-53
2021/07/17 04:19:02;;;;;;;15.15;12.40;;;;;;;21.63;71.04;101224.72;5032474;28;20072;-52
2021/07/17 04:21:27;;;;;;;16.13;12.38;;;;;;;21.62;71.10;101223.84;5035959;28;20021;-53
2021/07/17 04:23:53;;;;;;;15.60;12.45;;;;;;;21.61;71.23;101222.09;5036239;28;20030;-53
2021/07/17 04:26:18;;;;;;;14.43;12.75;;;;;;;21.62;71.03;101228.34;5039381;28;20074;-52
2021/07/17 04:28:44;;;;;;;13.75;12.23;;;;;;;21.61;70.98;101221.25;5036783;28;20075;-52
2021/07/17 04:31:09;;;;;;;15.45;12.15;;;;;;;21.60;70.88;101214.09;5036140;28;20022;-52
2021/07/17 04:33:34;;;;;;;13.93;12.30;;;;;;;21.60;71.21;101225.72;5037535;28;20029;-52
2021/07/17 04:36:00;;;;;;;13.00;11.55;;;;;;;21.59;70.96;101234.72;5038923;28;20468;-52
2021/07/17 04:38:25;;;;;;;14.52;12.35;;;;;;;21.60;70.98;101235.56;5039143;28;20021;-52
2021/07/17 04:40:51;;;;;;;14.32;11.52;;;;;;;21.59;70.94;101233.84;5034811;28;20017;-52
2021/07/17 04:43:16;;;;;;;14.00;11.45;;;;;;;21.59;70.95;101234.72;5044802;28;20140;-52
2021/07/17 04:45:41;;;;;;;13.63;11.18;;;;;;;21.58;71.23;101227.63;5039932;28;20030;-53
2021/07/17 04:48:07;;;;;;;14.80;11.70;;;;;;;21.58;70.94;101221.38;5040145;28;20021;-53
2021/07/17 04:50:33;;;;;;;14.38;11.43;;;;;;;21.57;71.10;101214.28;5042576;28;20029;-53
2021/07/17 04:52:59;;;;;;;16.38;12.90;;;;;;;21.57;71.07;101215.13;5030707;28;20018;-53
2021/07/17 04:55:25;;;;;;;13.13;11.63;;;;;;;21.56;70.99;101207.16;5040972;28;20379;-53
2021/07/17 04:57:51;;;;;;;13.63;12.32;;;;;;;21.57;71.30;101222.34;5039966;28;20025;-53
2021/07/17 05:00:17;;;;;;;13.07;11.85;;;;;;;21.55;70.95;101219.72;5037182;28;20028;-53
2021/07/17 05:02:53;;;;;;;13.63;12.23;;;;;;;21.54;71.17;101228.69;5036526;28;20428;-52
2021/07/17 05:05:19;;;;;;;18.25;13.07;;;;;;;21.56;71.00;101229.50;5043420;28;20048;-51
2021/07/17 05:07:45;;;;;;;15.75;12.35;;;;;;;21.56;71.04;101237.56;5040237;28;20486;-52
2021/07/17 05:10:12;;;;;;;16.23;12.60;;;;;;;21.53;71.05;101225.16;5039503;28;20032;-53
2021/07/17 05:12:38;;;;;;;15.95;11.90;;;;;;;21.53;70.94;101224.28;5036518;28;20029;-52
2021/07/17 05:15:05;;;;;;;16.10;12.35;;;;;;;21.53;71.16;101216.22;5019735;28;20089;-52
2021/07/17 05:17:31;;;;;;;17.58;13.02;;;;;;;21.50;71.21;101214.56;5037824;28;20102;-51
2021/07/17 05:19:56;;;;;;;13.15;11.52;;;;;;;21.50;71.19;101214.56;5034754;28;20513;-52
2021/07/17 05:22:21;;;;;;;17.67;13.23;;;;;;;21.49;71.17;101217.31;5032023;28;20579;-51
2021/07/17 05:24:47;;;;;;;16.48;14.00;;;;;;;21.48;71.12;101216.44;5032986;28;20078;-51
2021/07/17 05:27:12;;;;;;;14.55;13.05;;;;;;;21.48;71.13;101215.56;5000642;28;20403;-51
2021/07/17 05:29:38;;;;;;;13.80;12.38;;;;;;;21.48;71.10;101215.56;5029377;28;20395;-52
2021/07/17 05:32:03;;;;;;;16.10;13.10;;;;;;;21.47;71.33;101203.09;5018887;28;20327;-52
2021/07/17 05:34:28;;;;;;;15.65;14.02;;;;;;;21.48;71.18;101204.84;5033834;28;20025;-52
2021/07/17 05:36:54;;;;;;;14.60;13.00;;;;;;;21.47;71.41;101203.09;5037685;28;20471;-52
2021/07/17 05:39:19;;;;;;;18.13;13.55;;;;;;;21.47;71.16;101203.09;5041370;28;20369;-53
2021/07/17 05:41:44;;;;;;;14.85;13.38;;;;;;;21.44;71.33;101209.47;5015517;28;20022;-52
2021/07/17 05:44:10;;;;;;;20.35;14.23;;;;;;;21.45;71.28;101205.88;5037647;28;20056;-52
2021/07/17 05:46:36;;;;;;;17.17;12.52;;;;;;;21.43;71.36;101212.22;5034804;28;20026;-52
2021/07/17 05:49:01;;;;;;;16.30;13.82;;;;;;;21.42;71.21;101211.38;5040686;28;20057;-51
2021/07/17 05:51:26;;;;;;;20.67;15.23;;;;;;;21.40;71.34;101198.03;5039558;28;20045;-51
2021/07/17 05:53:52;;;;;;;16.00;13.13;;;;;;;21.40;71.38;101202.50;5012825;28;20453;-51
2021/07/17 05:56:17;;;;;;;18.27;13.75;;;;;;;21.40;71.30;101198.03;5030911;28;20013;-51
2021/07/17 05:58:42;;;;;;;17.25;14.88;;;;;;;21.37;71.54;101203.53;5029721;28;20112;-52
2021/07/17 06:01:08;;;;;;;17.30;13.32;;;;;;;21.40;71.35;101213.22;5029223;28;20017;-53
2021/07/17 06:03:33;;;;;;;16.00;13.00;;;;;;;21.39;71.48;101212.38;5029532;28;20043;-52
2021/07/17 06:05:59;;;;;;;16.80;14.75;;;;;;;21.39;71.35;101212.38;5028175;28;20036;-52
2021/07/17 06:08:24;;;;;;;17.17;13.93;;;;;;;21.39;71.21;101217.75;5034281;28;20116;-52
2021/07/17 06:10:49;;;;;;;15.88;14.15;;;;;;;21.39;71.41;101212.38;5036318;28;20053;-52
2021/07/17 06:13:15;;;;;;;15.57;12.77;;;;;;;21.39;71.21;101209.69;5033730;28;20063;-51
2021/07/17 06:15:40;;;;;;;19.52;13.88;;;;;;;21.38;71.50;101213.31;5002484;28;20513;-51
2021/07/17 06:18:05;;;;;;;18.42;13.75;;;;;;;21.37;71.50;101214.25;5030045;28;20458;-51
2021/07/17 06:20:31;;;;;;;14.90;13.20;;;;;;;21.36;71.37;101212.53;5013340;28;20060;-51
2021/07/17 06:22:56;;;;;;;15.43;12.43;;;;;;;21.36;71.31;101212.53;5031229;28;20559;-50
2021/07/17 06:25:22;;;;;;;14.32;12.85;;;;;;;21.37;71.33;101224.09;5029730;28;20029;-48
2021/07/17 06:27:47;;;;;;;14.80;13.40;;;;;;;21.37;71.15;101221.41;5029582;28;20025;-48
2021/07/17 06:30:13;;;;;;;14.52;13.07;;;;;;;21.36;71.33;101238.47;5027835;28;20033;-48
2021/07/17 06:32:38;;;;;;;17.77;14.52;;;;;;;21.34;71.66;101229.63;5026382;28;20033;-49
2021/07/17 06:35:05;;;;;;;15.85;12.57;;;;;;;21.33;71.59;101236.81;5029006;28;20429;-49
2021/07/17 06:37:30;;;;;;;15.65;13.93;;;;;;;21.32;71.63;101232.38;5028418;28;20479;-52
2021/07/17 06:39:55;;;;;;;14.88;12.27;;;;;;;21.31;71.52;101227.97;5032497;28;20078;-51
2021/07/17 06:42:21;;;;;;;16.05;13.88;;;;;;;21.28;71.69;101231.63;5030658;28;20021;-51
2021/07/17 06:44:46;;;;;;;13.63;11.98;;;;;;;21.27;71.74;101234.38;5026064;28;20029;-50
2021/07/17 06:47:11;;;;;;;16.73;12.93;;;;;;;21.26;71.94;101238.91;5030192;28;20071;-50
2021/07/17 06:49:37;;;;;;;15.07;13.05;;;;;;;21.28;71.87;101236.16;5028758;28;20021;-50
2021/07/17 06:52:02;;;;;;;15.43;11.90;;;;;;;21.27;71.71;101239.75;5028840;28;20017;-51
2021/07/17 06:54:28;;;;;;;13.68;12.30;;;;;;;21.27;71.59;101234.38;5025289;28;20483;-51
2021/07/17 06:56:53;;;;;;;13.82;12.43;;;;;;;21.26;71.58;101244.25;5029062;28;20021;-52
2021/07/17 06:59:18;;;;;;;15.95;12.05;;;;;;;21.28;71.72;101257.59;5030892;28;20025;-52
2021/07/17 07:01:44;;;;;;;13.93;11.43;;;;;;;21.28;71.54;101246.88;5030097;28;20527;-52
2021/07/17 07:04:09;;;;;;;14.57;12.55;;;;;;;21.27;71.55;101239.75;5030016;28;20522;-53
2021/07/17 07:06:35;;;;;;;14.02;12.57;;;;;;;21.28;71.43;101230.78;5011891;28;20064;-53
2021/07/17 07:09:00;;;;;;;14.23;11.65;;;;;;;21.25;71.66;101234.47;5029273;28;20108;-52
2021/07/17 07:11:25;;;;;;;14.02;12.52;;;;;;;21.25;71.76;101247.00;5030958;28;20022;-53
2021/07/17 07:13:50;;;;;;;14.45;12.40;;;;;;;21.23;72.02;101239.03;5030669;28;20040;-52
2021/07/17 07:16:16;;;;;;;13.50;12.10;;;;;;;21.26;71.57;101243.38;5025990;28;20112;-52
2021/07/17 07:18:41;;;;;;;12.52;11.25;;;;;;;21.25;71.90;101241.66;5028440;28;20029;-52
2021/07/17 07:21:07;;;;;;;13.63;10.98;;;;;;;21.26;71.76;101243.38;5027811;28;20029;-52
2021/07/17 07:23:33;;;;;;;14.68;13.18;;;;;;;21.23;72.18;101240.84;5029971;28;20104;-52
2021/07/17 07:25:58;;;;;;;14.13;11.38;;;;;;;21.22;72.17;101245.34;5028906;28;20017;-52
2021/07/17 07:28:23;;;;;;;14.52;11.75;;;;;;;21.23;72.13;101244.41;5030387;28;20045;-52
2021/07/17 07:30:49;;;;;;;13.63;11.70;;;;;;;21.23;71.97;101244.41;5026160;28;20112;-52
2021/07/17 07:33:14;;;;;;;13.05;11.73;;;;;;;21.22;72.08;101245.34;5029473;28;20025;-51
2021/07/17 07:35:40;;;;;;;15.23;12.25;;;;;;;21.22;72.10;101248.03;5029280;28;20033;-51
2021/07/17 07:38:05;;;;;;;13.65;11.95;;;;;;;21.24;71.91;101245.28;5028328;28;20017;-51
2021/07/17 07:40:31;;;;;;;14.75;12.30;;;;;;;21.23;72.12;101244.41;5030399;28;20029;-51
2021/07/17 07:42:56;;;;;;;15.25;11.85;;;;;;;21.22;72.09;101249.81;5028660;28;20035;-51
2021/07/17 07:45:22;;;;;;;15.30;12.05;;;;;;;21.22;72.08;101256.06;5029012;28;20490;-51
2021/07/17 07:47:48;;;;;;;12.65;10.90;;;;;;;21.24;71.97;101256.00;5027635;28;20121;-51
2021/07/17 07:50:14;;;;;;;13.43;11.55;;;;;;;21.22;72.07;101252.50;5028305;28;20626;-50
2021/07/17 07:52:40;;;;;;;13.05;11.57;;;;;;;21.21;71.96;101250.78;5028335;28;20025;-51
2021/07/17 07:55:07;;;;;;;14.05;12.35;;;;;;;21.21;72.13;101256.13;5028497;28;20026;-51
2021/07/17 07:57:32;;;;;;;14.88;12.35;;;;;;;21.18;72.23;101256.28;5031739;28;20025;-51
2021/07/17 07:59:57;;;;;;;13.18;11.35;;;;;;;21.18;72.23;101256.28;5033269;28;20022;-50
2021/07/17 08:02:24;;;;;;;13.68;12.35;;;;;;;21.18;72.23;101251.78;5032211;28;20079;-50
2021/07/17 08:04:49;;;;;;;18.17;11.93;;;;;;;21.17;72.26;101260.75;5032370;28;20430;-50
2021/07/17 08:07:14;;;;;;;14.10;12.05;;;;;;;21.18;72.23;101264.31;5029615;28;20028;-50
2021/07/17 08:09:39;;;;;;;14.70;12.50;;;;;;;21.15;72.36;101255.47;5033175;28;20048;-50
2021/07/17 08:12:05;;;;;;;12.73;11.40;;;;;;;21.18;72.11;101258.94;5034281;28;20446;-50
2021/07/17 08:14:30;;;;;;;17.10;12.23;;;;;;;21.14;72.50;101260.91;5031452;28;20060;-50
2021/07/17 08:16:56;;;;;;;13.25;11.85;;;;;;;21.16;72.37;101272.44;5029355;28;20117;-50
2021/07/17 08:19:21;;;;;;;14.27;12.82;;;;;;;21.15;72.59;101268.00;5032662;28;20060;-49
2021/07/17 08:21:46;;;;;;;12.52;11.23;;;;;;;21.14;72.56;101277.84;5016464;28;20031;-50
2021/07/17 08:24:12;;;;;;;13.18;11.48;;;;;;;21.15;72.13;101270.69;5033526;28;20749;-49
2021/07/17 08:26:37;;;;;;;12.15;10.85;;;;;;;21.16;72.23;101269.75;5033287;28;20036;-49
2021/07/17 08:29:04;;;;;;;13.38;12.00;;;;;;;21.15;72.15;101273.38;5028436;28;20471;-50
2021/07/17 08:31:29;;;;;;;13.50;11.30;;;;;;;21.15;71.88;101282.28;5029861;28;20022;-50
2021/07/17 08:33:55;;;;;;;14.68;11.45;;;;;;;21.17;71.81;101270.63;5030595;28;20025;-49
2021/07/17 08:36:20;;;;;;;14.65;12.05;;;;;;;21.17;71.76;101270.63;5020849;28;20432;-50
2021/07/17 08:38:45;;;;;;;13.90;11.23;;;;;;;21.15;71.97;101268.88;5031265;28;20025;-49
2021/07/17 08:41:11;;;;;;;13.55;11.63;;;;;;;21.16;72.22;101269.75;5032296;28;20021;-49
2021/07/17 08:43:38;;;;;;;12.35;10.75;;;;;;;21.15;72.14;101276.91;5030509;28;20120;-49
2021/07/17 08:46:03;;;;;;;14.18;12.25;;;;;;;21.14;72.12;101271.66;5032048;28;20116;-49
2021/07/17 08:48:30;;;;;;;13.95;12.48;;;;;;;21.15;72.01;101279.59;5014686;28;20013;-49
2021/07/17 08:50:58;;;;;;;13.90;12.40;;;;;;;21.16;72.09;101272.44;5032631;28;20497;-49
2021/07/17 08:53:24;;;;;;;13.60;10.95;;;;;;;21.15;72.19;101287.63;5029383;28;20029;-49
2021/07/17 08:55:49;;;;;;;13.10;11.75;;;;;;;21.13;72.40;101281.50;5028584;28;20022;-49
2021/07/17 08:58:15;;;;;;;13.77;11.82;;;;;;;21.14;72.43;101279.69;5031577;28;20036;-49
2021/07/17 09:00:42;;;;;;;14.45;12.30;;;;;;;21.15;72.35;101290.31;5030825;28;20458;-49
2021/07/17 09:03:10;;;;;;;12.18;10.98;;;;;;;21.13;72.21;101292.22;5029580;28;20028;-49
2021/07/17 09:05:42;;;;;;;13.52;11.95;;;;;;;21.15;72.42;101286.78;5027494;28;20034;-49
2021/07/17 09:08:08;;;;;;;13.88;12.32;;;;;;;21.11;72.72;101285.19;5024940;28;20025;-49
2021/07/17 09:10:36;;;;;;;15.73;13.38;;;;;;;21.12;72.72;101282.44;5031832;28;20040;-49
2021/07/17 09:13:07;;;;;;;16.63;12.80;;;;;;;21.13;72.90;101283.28;5031687;28;20022;-49
2021/07/17 09:15:33;;;;;;;15.68;12.90;;;;;;;21.14;72.60;101285.91;5032231;28;20021;-49
2021/07/17 09:17:58;;;;;;;15.40;13.70;;;;;;;21.11;72.94;101278.00;5027733;28;20033;-49
2021/07/17 09:20:24;;;;;;;15.55;13.85;;;;;;;21.13;72.94;101275.25;5031612;28;20140;-49
2021/07/17 09:22:58;;;;;;;15.60;13.95;;;;;;;21.11;72.66;101278.00;5031073;28;20465;-49
2021/07/17 09:25:24;;;;;;;16.17;14.48;;;;;;;21.14;72.86;101267.13;5031040;28;20064;-49
2021/07/17 09:27:49;;;;;;;17.00;15.18;;;;;;;21.12;72.89;101274.38;5031308;28;20045;-49
2021/07/17 09:30:32;;;;;;;19.58;13.90;;;;;;;21.13;72.99;101265.41;5029688;28;20094;-49
2021/07/17 09:33:04;;;;;;;17.35;14.77;;;;;;;21.11;72.78;101267.25;5027197;28;20551;-49
2021/07/17 09:35:29;;;;;;;18.80;14.95;;;;;;;21.13;73.05;101259.16;5030545;28;20044;-49
2021/07/17 09:37:56;;;;;;;21.02;15.30;;;;;;;21.13;73.36;101264.50;5030315;28;20483;-49
2021/07/17 09:40:23;;;;;;;21.85;15.93;;;;;;;21.11;73.55;101267.25;5029993;28;20025;-49
2021/07/17 09:42:49;;;;;;;19.63;15.60;;;;;;;21.12;73.47;101263.66;5030210;28;20040;-49
2021/07/17 09:45:33;;;;;;;21.15;16.85;;;;;;;21.11;73.91;101264.56;5031123;28;20071;-49
2021/07/17 09:47:59;;;;;;;20.80;16.80;;;;;;;21.12;73.50;101271.72;5028410;28;20025;-49
2021/07/17 09:50:32;;;;;;;21.58;16.23;;;;;;;21.13;73.42;101261.84;5028430;28;20044;-49
2021/07/17 09:52:59;;;;;;;20.65;16.45;;;;;;;21.14;73.18;101266.28;5030903;28;20013;-49
2021/07/17 09:55:24;;;;;;;20.50;16.52;;;;;;;21.12;73.78;101269.03;5028001;28;20029;-49
2021/07/17 09:57:50;;;;;;;20.83;17.20;;;;;;;21.13;73.80;101257.34;5026979;28;20506;-49
2021/07/17 10:00:19;;;;;;;21.10;16.13;;;;;;;21.13;73.43;101260.03;5030795;28;20029;-49
2021/07/17 10:02:44;;;;;;;19.95;17.13;;;;;;;21.12;73.66;101269.03;5030575;28;20064;-49
2021/07/17 10:05:15;;;;;;;21.80;18.20;;;;;;;21.13;73.51;101267.19;5030466;28;20052;-49
2021/07/17 10:07:41;;;;;;;20.08;17.52;;;;;;;21.14;73.29;101277.84;5029027;28;20467;-49
2021/07/17 10:10:07;;;;;;;20.88;18.60;;;;;;;21.13;73.63;101273.44;5029910;28;20032;-49
2021/07/17 10:12:40;;;;;;;20.17;17.45;;;;;;;21.14;73.23;101269.81;5031183;28;20526;-49
2021/07/17 10:15:08;;;;;;;21.77;17.27;;;;;;;21.13;73.58;101270.75;5028298;28;20075;-49
2021/07/17 10:17:43;;;;;;;23.30;18.38;;;;;;;21.14;73.53;101267.13;5030276;28;20032;-49
2021/07/17 10:20:14;;;;;;;21.90;18.88;;;;;;;21.13;73.23;101265.41;5025347;28;20040;-49
2021/07/17 10:22:40;;;;;;;;;;;;;;;21.15;73.58;101268.88;5041284;28;20387;-49
2021/07/17 10:25:10;;;;;;;21.60;16.52;;;;;;;21.14;73.06;101269.81;5030581;28;19909;-49
2021/07/17 10:27:36;;;;;;;23.98;20.13;;;;;;;21.15;74.27;101257.28;5031391;28;20033;-50
2021/07/17 10:30:06;;;;;;;26.83;19.33;;;;;;;21.15;74.36;101257.28;5026481;28;20026;-49
2021/07/17 10:32:32;;;;;;;24.75;19.00;;;;;;;21.14;73.98;101261.75;5013290;28;20094;-49
2021/07/17 10:34:57;;;;;;;28.00;20.40;;;;;;;21.15;74.59;101258.13;5027826;28;20120;-49
2021/07/17 10:37:27;;;;;;;25.90;19.48;;;;;;;21.13;74.17;101249.31;5030810;28;20525;-49
2021/07/17 10:40:06;;;;;;;28.10;20.10;;;;;;;21.13;74.98;101257.34;5029922;28;20037;-49
2021/07/17 10:42:31;;;;;;;25.52;20.30;;;;;;;21.14;75.14;101253.72;5030872;28;20017;-49
2021/07/17 10:44:57;;;;;;;29.25;21.65;;;;;;;21.13;75.81;101254.66;5025667;28;20021;-49
2021/07/17 10:47:23;;;;;;;28.80;21.92;;;;;;;21.12;75.72;101252.94;5029810;28;20462;-49
2021/07/17 10:49:53;;;;;;;27.08;21.77;;;;;;;21.13;75.94;101260.03;5030094;28;20454;-49
2021/07/17 10:52:34;;;;;;;28.75;21.92;;;;;;;21.14;76.58;101252.88;5030241;28;20060;-49
2021/07/17 10:55:37;;;;;;;26.63;21.67;;;;;;;21.14;75.66;101253.72;5026029;28;20029;-50
2021/07/17 10:58:11;;;;;;;27.05;20.67;;;;;;;21.12;75.41;101242.22;5028847;28;20021;-49
2021/07/17 11:00:43;;;;;;;27.05;21.05;;;;;;;21.15;75.05;101242.03;5029927;28;20022;-49
2021/07/17 11:03:32;;;;;;;28.45;21.02;;;;;;;21.13;75.72;101243.94;5030119;28;20056;-49
2021/07/17 11:06:24;;;;;;;33.22;22.17;;;;;;;21.15;76.11;101236.69;5027452;28;20101;-49